createdAt,value
2023-01-10T04:54:07.248Z,200.00
2023-01-10T04:55:07.212Z,199.50
2023-01-10T04:56:07.191Z,198.52
2023-01-10T04:57:07.167Z,199.25
2023-01-10T04:58:07.154Z,199.54
2023-01-10T04:59:07.128Z,200.29
2023-01-10T05:00:07.091Z,199.47
2023-01-10T05:01:07.122Z,197.22
2023-01-10T05:02:07.156Z,200.85
2023-01-10T05:03:07.202Z,197.69
2023-01-10T05:04:06.990Z,197.77
2023-01-10T05:05:06.990Z,198.67
2023-01-10T05:06:06.940Z,199.73
2023-01-10T05:07:06.943Z,200.03
2023-01-10T05:08:06.906Z,201.08
2023-01-10T05:09:06.870Z,201.33
2023-01-10T05:10:06.865Z,201.12
2023-01-10T05:11:06.833Z,199.26
2023-01-10T05:12:06.809Z,203.14
2023-01-10T05:13:06.810Z,201.68
2023-01-10T05:14:06.757Z,201.39
2023-01-10T05:15:06.729Z,201.12
2023-01-10T05:16:06.744Z,201.94
2023-01-10T05:17:06.673Z,200.45
2023-01-10T05:18:06.654Z,202.38
2023-01-10T05:19:06.631Z,202.39
2023-01-10T05:20:06.600Z,200.82
2023-01-10T05:21:06.582Z,202.20
2023-01-10T05:22:06.556Z,200.95
2023-01-10T05:23:06.528Z,199.85
2023-01-10T05:24:06.518Z,200.93
2023-01-10T05:25:06.479Z,199.39
2023-01-10T05:26:06.448Z,203.09
2023-01-10T05:27:06.438Z,201.44
2023-01-10T05:28:06.415Z,201.28
2023-01-10T05:29:06.376Z,201.12
2023-01-10T05:30:06.428Z,202.44
2023-01-10T05:31:06.329Z,202.63
2023-01-10T05:32:06.314Z,202.49
2023-01-10T05:33:06.285Z,202.66
2023-01-10T05:34:06.265Z,202.74
2023-01-10T05:35:06.248Z,203.01
2023-01-10T05:36:06.215Z,202.75
2023-01-10T05:37:06.221Z,202.96
2023-01-10T05:38:06.177Z,202.69
2023-01-10T05:39:06.211Z,202.79
2023-01-10T05:40:06.123Z,203.15
2023-01-10T05:41:06.103Z,203.68
2023-01-10T05:42:06.095Z,202.51
2023-01-10T05:43:06.087Z,204.39
2023-01-10T05:44:06.051Z,202.05
2023-01-10T05:45:06.051Z,202.73
2023-01-10T05:46:06.130Z,202.93
2023-01-10T05:47:06.064Z,203.03
2023-01-10T05:48:05.979Z,202.95
2023-01-10T05:49:05.953Z,202.68
2023-01-10T05:50:05.943Z,202.96
2023-01-10T05:51:05.908Z,202.76
2023-01-10T05:52:05.895Z,203.62
2023-01-10T05:53:06.006Z,203.50
2023-01-10T05:54:05.855Z,202.56
2023-01-10T05:55:05.829Z,200.29
2023-01-10T05:56:05.828Z,201.87
2023-01-10T05:57:05.804Z,202.72
2023-01-10T05:58:05.818Z,202.18
2023-01-10T05:59:11.839Z,200.16
2023-01-10T06:01:05.737Z,200.59
2023-01-10T06:02:05.674Z,200.88
2023-01-10T06:03:05.709Z,202.09
2023-01-10T06:04:05.657Z,201.59
2023-01-10T06:05:05.630Z,201.45
2023-01-10T06:06:05.608Z,202.68
2023-01-10T06:07:05.578Z,202.31
2023-01-10T06:08:05.552Z,200.99
2023-01-10T06:09:05.531Z,198.54
2023-01-10T06:10:05.514Z,194.13
2023-01-10T06:11:05.514Z,192.98
2023-01-10T06:12:05.483Z,194.07
2023-01-10T06:13:05.446Z,194.28
2023-01-10T06:14:05.441Z,194.92
2023-01-10T06:15:05.430Z,195.83
2023-01-10T06:16:05.430Z,197.25
2023-01-10T06:17:05.382Z,200.51
2023-01-10T06:18:05.352Z,199.89
2023-01-10T06:19:05.361Z,201.79
2023-01-10T06:20:05.327Z,201.61
2023-01-10T06:21:05.292Z,202.16
2023-01-10T06:22:05.272Z,202.32
2023-01-10T06:23:05.271Z,202.55
2023-01-10T06:24:05.245Z,202.93
2023-01-10T06:25:05.315Z,203.77
2023-01-10T06:26:05.222Z,203.22
2023-01-10T06:27:05.190Z,203.84
2023-01-10T06:28:05.178Z,205.81
2023-01-10T06:29:05.167Z,205.48
2023-01-10T06:30:05.160Z,205.65
2023-01-10T06:31:05.179Z,203.03
2023-01-10T06:32:05.103Z,205.51
2023-01-10T06:33:05.169Z,205.72
2023-01-10T06:34:05.066Z,205.37
2023-01-10T06:35:05.054Z,205.78
2023-01-10T06:36:05.032Z,206.41
2023-01-10T06:37:05.026Z,205.02
2023-01-10T06:38:04.989Z,206.96
2023-01-10T06:39:04.976Z,205.80
2023-01-10T06:40:05.171Z,205.72
2023-01-10T06:41:04.946Z,204.00
2023-01-10T06:42:04.931Z,204.80
2023-01-10T06:43:04.930Z,204.96
2023-01-10T06:44:04.892Z,205.87
2023-01-10T06:45:04.889Z,205.52
2023-01-10T06:46:04.952Z,206.00
2023-01-10T06:47:04.846Z,203.10
2023-01-10T06:48:04.827Z,206.03
2023-01-10T06:49:04.881Z,206.22
2023-01-10T06:50:04.786Z,206.41
2023-01-10T06:51:04.783Z,204.54
2023-01-10T11:49:56.605Z,151.27
2023-01-10T12:26:55.446Z,156.72
2023-01-10T12:47:07.698Z,155.10
2023-01-10T12:47:56.188Z,155.25
2023-01-10T13:37:53.097Z,152.72
2023-01-10T13:38:53.055Z,152.65
2023-01-10T13:39:53.013Z,154.73
2023-01-10T13:40:52.995Z,153.49
2023-01-10T13:41:52.948Z,152.56
2023-01-10T13:42:52.916Z,153.49
2023-01-10T13:43:52.924Z,151.50
2023-01-10T13:44:52.872Z,155.66
2023-01-10T13:45:52.864Z,153.12
2023-01-10T13:46:52.865Z,153.34
2023-01-10T13:47:52.766Z,152.85
2023-01-10T13:48:52.735Z,152.23
2023-01-10T13:49:52.747Z,153.26
2023-01-10T13:50:52.681Z,152.55
2023-01-10T13:51:52.688Z,151.32
2023-01-10T13:52:52.635Z,153.19
2023-01-10T13:53:52.610Z,151.20
2023-01-10T13:54:52.572Z,152.17
2023-01-10T13:55:52.543Z,150.79
2023-01-10T13:56:52.510Z,148.99
2023-01-10T13:57:52.472Z,152.70
2023-01-10T13:58:52.439Z,153.09
2023-01-10T13:59:52.485Z,149.37
2023-01-10T14:00:52.472Z,148.64
2023-01-10T14:01:52.472Z,148.63
2023-01-10T14:02:52.347Z,149.28
2023-01-10T14:03:52.294Z,150.22
2023-01-10T14:04:52.290Z,150.55
2023-01-10T14:05:52.245Z,149.40
2023-01-10T14:06:52.212Z,149.49
2023-01-10T14:07:52.176Z,149.21
2023-01-10T14:08:52.155Z,150.40
2023-01-10T14:09:52.130Z,149.38
2023-01-10T14:10:52.111Z,149.62
2023-01-10T14:11:52.066Z,149.70
2023-01-10T14:12:52.069Z,149.56
2023-01-10T14:13:52.018Z,149.11
2023-01-10T14:14:51.979Z,150.32
2023-01-10T14:15:52.053Z,151.48
2023-01-10T14:16:51.976Z,148.39
2023-01-10T14:17:51.898Z,149.18
2023-01-10T14:18:51.868Z,148.45
2023-01-10T14:19:51.837Z,148.22
2023-01-10T14:20:51.828Z,148.65
2023-01-10T14:21:51.810Z,150.13
2023-01-10T14:22:51.795Z,148.11
2023-01-10T14:23:51.773Z,151.01
2023-01-10T14:24:51.731Z,148.59
2023-01-10T14:25:51.710Z,149.13
2023-01-10T14:26:51.701Z,149.74
2023-01-10T14:27:51.659Z,149.65
2023-01-10T14:28:51.643Z,149.61
2023-01-10T14:29:51.600Z,147.08
2023-01-10T14:30:51.613Z,147.38
2023-01-10T14:31:51.557Z,148.73
2023-01-10T14:32:51.536Z,149.60
2023-01-10T14:33:51.514Z,148.43
2023-01-10T14:34:51.499Z,146.91
2023-01-10T14:35:51.479Z,149.91
2023-01-10T14:36:51.445Z,147.83
2023-01-10T14:37:51.411Z,148.66
2023-01-10T14:38:51.383Z,146.36
2023-01-10T14:39:51.363Z,147.55
2023-01-10T14:40:51.327Z,146.68
2023-01-10T14:41:51.298Z,147.76
2023-01-10T14:42:51.291Z,149.27
2023-01-10T14:43:51.261Z,146.81
2023-01-10T14:44:51.231Z,147.02
2023-01-10T14:45:51.207Z,145.00
2023-01-10T14:46:51.195Z,147.92
2023-01-10T14:47:51.167Z,144.94
2023-01-10T14:48:51.812Z,146.65
2023-01-10T14:49:51.109Z,147.44
2023-01-10T14:50:51.102Z,148.06
2023-01-10T14:51:51.062Z,148.75
2023-01-10T14:52:51.113Z,147.79
2023-01-10T14:53:51.678Z,146.72
2023-01-10T14:54:51.049Z,145.93
2023-01-10T14:55:51.199Z,144.67
2023-01-10T14:56:51.072Z,148.72
2023-01-10T14:57:51.047Z,146.12
2023-01-10T14:58:50.994Z,146.88
2023-01-10T14:59:50.880Z,148.47
2023-01-10T15:00:51.001Z,145.55
2023-01-10T15:01:50.982Z,145.47
2023-01-10T15:02:50.849Z,144.87
2023-01-10T15:03:50.799Z,146.73
2023-01-10T15:04:50.831Z,147.10
2023-01-10T15:05:50.771Z,146.73
2023-01-10T15:06:50.712Z,144.42
2023-01-10T15:07:50.689Z,146.18
2023-01-10T15:08:50.650Z,146.70
2023-01-10T15:09:50.625Z,146.94
2023-01-10T15:10:50.599Z,145.36
2023-01-10T15:11:50.582Z,145.39
2023-01-10T15:12:50.561Z,145.86
2023-01-10T15:13:50.532Z,144.14
2023-01-10T15:14:50.524Z,146.73
2023-01-10T15:15:50.527Z,145.15
2023-01-10T15:16:50.502Z,144.89
2023-01-10T15:17:50.441Z,147.28
2023-01-10T15:18:50.443Z,146.37
2023-01-10T15:19:50.434Z,144.66
2023-01-10T15:20:50.400Z,146.89
2023-01-10T15:21:50.392Z,145.58
2023-01-10T15:22:50.407Z,146.38
2023-01-10T15:23:50.351Z,146.55
2023-01-10T15:24:50.323Z,145.07
2023-01-10T15:25:50.299Z,146.01
2023-01-10T15:26:50.270Z,146.32
2023-01-10T15:27:50.264Z,146.53
2023-01-10T15:28:50.249Z,145.28
2023-01-10T15:29:50.215Z,145.92
2023-01-10T15:30:50.186Z,144.73
2023-01-10T15:31:50.173Z,144.67
2023-01-10T15:32:50.142Z,144.83
2023-01-10T15:33:50.114Z,145.84
2023-01-10T15:34:50.108Z,144.59
2023-01-10T15:35:50.075Z,143.93
2023-01-10T15:36:50.053Z,146.45
2023-01-10T15:37:50.031Z,144.21
2023-01-10T15:38:50.009Z,144.03
2023-01-10T15:39:49.980Z,144.38
2023-01-10T15:40:49.962Z,145.73
2023-01-10T15:41:49.940Z,145.67
2023-01-10T15:42:49.920Z,145.90
2023-01-10T15:43:49.902Z,144.53
2023-01-10T15:44:49.917Z,144.37
2023-01-10T15:45:49.847Z,144.70
2023-01-10T15:46:49.933Z,145.34
2023-01-10T15:47:49.830Z,144.64
2023-01-10T15:48:49.788Z,144.06
2023-01-10T15:49:49.795Z,144.70
2023-01-10T15:50:49.765Z,145.13
2023-01-10T15:51:49.748Z,145.36
2023-01-10T15:52:49.735Z,145.19
2023-01-10T15:53:49.686Z,145.91
2023-01-10T15:54:49.692Z,145.68
2023-01-10T15:55:49.665Z,143.69
2023-01-10T15:56:49.632Z,145.89
2023-01-10T15:57:49.607Z,144.85
2023-01-10T15:58:49.614Z,146.47
2023-01-10T15:59:49.575Z,145.61
2023-01-10T16:00:49.622Z,145.65
2023-01-10T16:01:49.726Z,144.71
2023-01-10T16:02:49.646Z,145.83
2023-01-10T16:03:49.658Z,143.71
2023-01-10T16:04:50.231Z,143.86
2023-01-10T16:05:49.408Z,145.28
2023-01-10T16:06:49.409Z,144.81
2023-01-10T16:07:49.371Z,143.82
2023-01-10T16:08:49.340Z,144.57
2023-01-10T16:09:49.325Z,144.44
2023-01-10T16:10:49.317Z,143.09
2023-01-10T16:11:49.304Z,144.01
2023-01-10T16:12:49.301Z,146.85
2023-01-10T16:13:49.250Z,144.59
2023-01-10T16:14:49.224Z,144.87
2023-01-10T16:15:49.204Z,143.96
2023-01-10T16:16:49.195Z,145.01
2023-01-10T16:17:49.206Z,144.83
2023-01-10T16:18:49.198Z,144.68
2023-01-10T16:19:49.156Z,143.43
2023-01-10T16:20:49.135Z,145.33
2023-01-10T16:21:49.139Z,143.47
2023-01-10T16:22:49.113Z,143.44
2023-01-10T16:23:49.048Z,144.58
2023-01-10T16:24:49.029Z,144.10
2023-01-10T16:25:49.014Z,143.72
2023-01-10T16:26:48.996Z,146.13
2023-01-10T16:27:48.964Z,144.56
2023-01-10T16:28:48.941Z,141.90
2023-01-10T16:29:48.906Z,144.09
2023-01-10T16:30:48.872Z,143.46
2023-01-10T16:31:48.910Z,143.93
2023-01-10T16:32:48.844Z,144.08
2023-01-10T16:33:48.806Z,142.44
2023-01-10T16:34:48.784Z,143.48
2023-01-10T16:35:48.735Z,144.62
2023-01-10T16:36:48.739Z,144.59
2023-01-10T16:37:48.691Z,144.14
2023-01-10T16:38:48.661Z,144.75
2023-01-10T16:39:48.629Z,142.57
2023-01-10T16:40:48.609Z,144.92
2023-01-10T16:41:48.585Z,145.02
2023-01-10T16:42:48.563Z,143.47
2023-01-10T16:43:48.567Z,143.74
2023-01-10T16:44:48.501Z,143.00
2023-01-10T16:45:48.499Z,145.00
2023-01-10T16:46:48.447Z,143.29
2023-01-10T16:47:48.442Z,144.70
2023-01-10T16:48:48.394Z,144.10
2023-01-10T16:49:48.384Z,142.40
2023-01-10T16:50:48.359Z,145.08
2023-01-10T16:51:48.332Z,143.75
2023-01-10T16:52:48.307Z,143.96
2023-01-10T16:53:48.272Z,143.10
2023-01-10T16:54:48.257Z,143.26
2023-01-10T16:55:48.304Z,143.65
2023-01-10T16:56:48.218Z,143.10
2023-01-10T16:57:48.200Z,143.24
2023-01-10T16:58:48.163Z,144.16
2023-01-10T16:59:48.128Z,143.38
2023-01-10T17:00:48.135Z,145.06
2023-01-10T17:01:48.230Z,146.50
2023-01-10T17:02:48.063Z,143.11
2023-01-10T17:03:48.186Z,142.23
2023-01-10T17:04:48.017Z,142.98
2023-01-10T17:05:48.011Z,144.28
2023-01-10T17:06:47.973Z,142.98
2023-01-10T17:07:47.973Z,142.81
2023-01-10T17:08:47.920Z,142.96
2023-01-10T17:09:47.899Z,143.00
2023-01-10T17:10:47.871Z,140.94
2023-01-10T17:11:47.864Z,143.38
2023-01-10T17:12:47.833Z,138.36
2023-01-10T17:13:47.821Z,138.12
2023-01-10T17:14:47.792Z,139.38
2023-01-10T17:15:47.769Z,137.62
2023-01-10T17:16:47.811Z,138.75
2023-01-10T17:17:47.741Z,136.05
2023-01-10T17:18:47.719Z,137.21
2023-01-10T17:19:47.708Z,136.19
2023-01-10T17:20:47.692Z,136.24
2023-01-10T17:21:47.666Z,135.85
2023-01-10T17:22:47.646Z,135.51
2023-01-10T17:23:47.659Z,135.65
2023-01-10T17:24:47.619Z,134.57
2023-01-10T17:25:47.595Z,136.74
2023-01-10T17:26:47.591Z,134.09
2023-01-10T17:27:47.566Z,133.48
2023-01-10T17:28:47.547Z,133.11
2023-01-10T17:29:47.538Z,132.86
2023-01-10T17:30:47.506Z,131.18
2023-01-10T17:31:47.507Z,131.06
2023-01-10T17:32:47.464Z,132.12
2023-01-10T17:33:47.470Z,129.98
2023-01-10T17:34:47.454Z,129.82
2023-01-10T17:35:47.411Z,130.15
2023-01-10T17:36:47.393Z,129.25
2023-01-10T17:37:47.378Z,129.76
2023-01-10T17:38:47.375Z,126.73
2023-01-10T17:39:47.363Z,127.67
2023-01-10T17:40:47.320Z,128.40
2023-01-10T17:41:47.317Z,128.88
2023-01-10T17:42:47.283Z,129.05
2023-01-10T17:43:47.277Z,128.22
2023-01-10T17:44:47.246Z,127.53
2023-01-10T17:45:47.275Z,131.27
2023-01-10T17:46:47.216Z,126.76
2023-01-10T17:47:47.187Z,126.83
2023-01-10T17:48:47.173Z,128.56
2023-01-10T17:49:47.171Z,128.77
2023-01-10T17:50:47.134Z,127.02
2023-01-10T17:51:47.109Z,126.73
2023-01-10T17:52:47.086Z,127.70
2023-01-10T17:53:47.060Z,127.44
2023-01-10T17:54:47.055Z,126.51
2023-01-10T17:55:47.037Z,127.85
2023-01-10T17:56:46.996Z,126.38
2023-01-10T17:57:46.986Z,129.35
2023-01-10T17:58:46.968Z,126.99
2023-01-10T17:59:46.934Z,127.61
2023-01-10T18:00:47.033Z,126.48
2023-01-10T18:01:47.044Z,128.52
2023-01-10T18:02:46.882Z,126.91
2023-01-10T18:03:46.840Z,127.44
2023-01-10T18:04:46.839Z,127.35
2023-01-10T18:05:46.824Z,127.92
2023-01-10T18:06:46.787Z,129.86
2023-01-10T18:07:46.775Z,128.61
2023-01-10T18:08:46.740Z,129.56
2023-01-10T18:09:46.756Z,129.05
2023-01-10T18:10:46.714Z,129.48
2023-01-10T18:11:46.673Z,129.15
2023-01-10T18:12:46.653Z,128.97
2023-01-10T18:13:46.634Z,126.92
2023-01-10T18:14:46.612Z,129.12
2023-01-10T18:15:46.592Z,128.29
2023-01-10T18:16:46.570Z,128.99
2023-01-10T18:17:46.529Z,127.87
2023-01-10T18:18:46.488Z,127.86
2023-01-10T18:19:46.467Z,128.10
2023-01-10T18:20:46.459Z,128.20
2023-01-10T18:21:46.442Z,128.70
2023-01-10T18:22:46.461Z,130.32
2023-01-10T18:23:46.364Z,130.27
2023-01-10T18:24:46.338Z,131.37
2023-01-10T18:25:46.321Z,129.54
2023-01-10T18:26:46.306Z,129.50
2023-01-10T18:27:46.276Z,129.42
2023-01-10T18:28:46.267Z,130.35
2023-01-10T18:29:46.231Z,128.96
2023-01-10T18:30:46.250Z,130.98
2023-01-10T18:31:46.167Z,128.99
2023-01-10T18:32:46.156Z,127.95
2023-01-10T18:33:46.132Z,129.96
2023-01-10T18:34:46.097Z,130.45
2023-01-10T18:35:47.443Z,129.94
2023-01-10T18:36:46.074Z,128.02
2023-01-10T18:37:46.043Z,129.84
2023-01-10T18:38:46.069Z,126.08
2023-01-10T18:39:45.988Z,127.34
2023-01-10T18:40:45.976Z,127.59
2023-01-10T18:41:45.940Z,126.62
2023-01-10T18:42:45.936Z,128.63
2023-01-10T18:43:45.913Z,125.46
2023-01-10T18:44:45.874Z,126.05
2023-01-10T18:45:45.931Z,127.83
2023-01-10T18:46:45.848Z,125.54
2023-01-10T18:47:45.822Z,125.63
2023-01-10T18:48:45.788Z,124.76
2023-01-10T18:49:45.789Z,124.60
2023-01-10T18:50:45.755Z,124.69
2023-01-10T18:51:45.718Z,126.71
2023-01-10T18:52:45.694Z,123.90
2023-01-10T18:53:45.678Z,122.19
2023-01-10T18:54:45.663Z,124.56
2023-01-10T18:55:45.666Z,122.72
2023-01-10T18:56:45.628Z,122.51
2023-01-10T18:57:45.595Z,122.84
2023-01-10T18:58:45.634Z,121.41
2023-01-10T18:59:45.624Z,121.63
2023-01-10T19:00:45.529Z,121.78
2023-01-10T19:01:45.596Z,120.94
2023-01-10T19:02:45.572Z,121.29
2023-01-10T19:03:45.483Z,120.57
2023-01-10T19:04:45.435Z,121.62
2023-01-10T19:05:45.499Z,120.84
2023-01-10T19:06:45.391Z,122.05
2023-01-10T19:07:45.356Z,122.31
2023-01-10T19:08:45.358Z,122.22
2023-01-10T19:09:45.309Z,119.95
2023-01-10T19:11:11.368Z,122.19
2023-01-10T19:11:46.295Z,122.26
2023-01-10T19:12:45.242Z,122.33
2023-01-10T19:13:45.249Z,122.11
2023-01-10T19:14:45.196Z,122.23
2023-01-10T19:15:45.204Z,122.28
2023-01-10T19:16:45.171Z,121.57
2023-01-10T19:31:44.910Z,121.85
